createdAt,value
2017-08-26T00:00:49.013Z,25.87
2017-08-26T00:03:15.390Z,19.30
2017-08-26T00:05:41.825Z,35.47
2017-08-26T00:08:08.260Z,27.40
2017-08-26T00:10:34.900Z,28.13
2017-08-26T00:13:01.336Z,28.57
2017-08-26T00:15:27.863Z,26.00
2017-08-26T00:17:54.409Z,24.40
2017-08-26T00:20:20.843Z,22.43
2017-08-26T00:22:47.277Z,25.30
2017-08-26T00:25:13.753Z,21.00
2017-08-26T00:27:40.120Z,41.43
2017-08-26T00:30:06.583Z,16.67
2017-08-26T00:32:32.983Z,20.67
2017-08-26T00:34:59.572Z,21.30
2017-08-26T00:37:26.093Z,32.63
2017-08-26T00:39:52.527Z,39.70
2017-08-26T00:42:19.012Z,22.47
2017-08-26T00:44:45.500Z,21.70
2017-08-26T00:47:11.933Z,17.30
2017-08-26T00:49:38.459Z,20.53
2017-08-26T00:52:04.899Z,16.20
2017-08-26T00:54:31.446Z,18.90
2017-08-26T00:56:57.880Z,23.30
2017-08-26T00:59:24.313Z,24.30
2017-08-26T01:01:50.846Z,22.37
2017-08-26T01:04:17.238Z,30.67
2017-08-26T01:06:43.617Z,28.10
2017-08-26T01:09:10.096Z,23.53
2017-08-26T01:11:36.592Z,28.87
2017-08-26T01:14:02.980Z,20.87
2017-08-26T01:16:30.342Z,19.23
2017-08-26T01:18:56.817Z,17.57
2017-08-26T01:21:23.293Z,22.70
2017-08-26T01:23:49.689Z,16.87
2017-08-26T01:26:16.244Z,19.07
2017-08-26T01:28:42.737Z,29.93
2017-08-26T01:31:09.196Z,27.97
2017-08-26T01:33:35.632Z,27.40
2017-08-26T01:36:02.143Z,21.10
2017-08-26T01:38:28.604Z,20.30
2017-08-26T01:40:55.009Z,33.20
2017-08-26T01:43:21.469Z,25.60
2017-08-26T01:45:48.010Z,24.60
2017-08-26T01:48:14.445Z,24.10
2017-08-26T01:50:40.883Z,27.53
2017-08-26T01:53:07.316Z,29.83
2017-08-26T01:55:33.871Z,54.20
2017-08-26T01:58:00.388Z,36.53
2017-08-26T02:00:26.928Z,23.53
2017-08-26T02:02:53.361Z,19.40
2017-08-26T02:05:19.899Z,17.10
2017-08-26T02:07:46.333Z,16.53
2017-08-26T02:10:12.770Z,16.20
2017-08-26T02:12:39.148Z,16.70
2017-08-26T02:15:05.638Z,18.63
2017-08-26T02:17:32.075Z,16.37
2017-08-26T02:19:58.508Z,22.30
2017-08-26T02:22:24.943Z,19.37
2017-08-26T02:24:51.482Z,18.23
2017-08-26T02:27:17.915Z,23.97
2017-08-26T02:29:44.350Z,31.63
2017-08-26T02:32:10.784Z,32.20
2017-08-26T02:34:37.299Z,26.57
2017-08-26T02:37:03.759Z,30.20
2017-08-26T02:39:30.192Z,26.03
2017-08-26T02:41:56.627Z,19.33
2017-08-26T02:44:23.010Z,21.53
2017-08-26T02:46:49.497Z,22.53
2017-08-26T02:49:15.931Z,23.73
2017-08-26T02:51:42.366Z,21.70
2017-08-26T02:54:08.803Z,19.70
2017-08-26T02:56:35.236Z,21.40
2017-08-26T02:59:01.670Z,23.57
2017-08-26T03:01:28.108Z,24.10
2017-08-26T03:03:54.541Z,16.23
2017-08-26T03:06:21.036Z,16.90
2017-08-26T03:08:47.510Z,20.70
2017-08-26T03:11:14.602Z,25.33
2017-08-26T03:13:41.053Z,21.33
2017-08-26T03:16:07.431Z,28.37
2017-08-26T03:18:33.869Z,20.20
2017-08-26T03:21:00.302Z,24.70
2017-08-26T03:23:26.937Z,28.27
2017-08-26T03:25:53.429Z,44.47
2017-08-26T03:28:19.863Z,21.83
2017-08-26T03:30:46.352Z,24.33
2017-08-26T03:33:12.785Z,49.63
2017-08-26T03:35:39.321Z,62.80
2017-08-26T03:38:05.757Z,21.97
2017-08-26T03:40:32.191Z,22.57
2017-08-26T03:42:58.625Z,23.60
2017-08-26T03:45:25.112Z,55.93
2017-08-26T03:47:51.587Z,63.03
2017-08-26T03:50:18.032Z,28.23
2017-08-26T03:52:44.467Z,33.37
2017-08-26T03:55:11.005Z,27.80
2017-08-26T03:57:37.440Z,25.80
2017-08-26T04:00:03.837Z,24.73
2017-08-26T04:02:30.309Z,25.20
2017-08-26T04:04:56.822Z,18.37
2017-08-26T04:07:23.281Z,18.30
2017-08-26T04:09:49.716Z,23.77
2017-08-26T04:12:16.119Z,15.97
2017-08-26T04:14:42.629Z,19.93
2017-08-26T04:17:09.076Z,24.03
2017-08-26T04:19:35.559Z,33.03
2017-08-26T04:22:01.993Z,34.07
2017-08-26T04:24:28.501Z,26.73
2017-08-26T04:26:54.966Z,21.73
2017-08-26T04:29:21.407Z,27.03
2017-08-26T04:31:47.836Z,28.33
2017-08-26T04:34:14.272Z,20.30
2017-08-26T04:36:40.689Z,26.93
2017-08-26T04:39:07.140Z,23.67
2017-08-26T04:41:33.574Z,26.67
2017-08-26T04:44:00.012Z,24.73
2017-08-26T04:46:26.495Z,19.90
2017-08-26T04:48:52.983Z,15.97
2017-08-26T04:51:20.118Z,26.40
2017-08-26T04:53:46.568Z,18.50
2017-08-26T04:56:13.006Z,16.83
2017-08-26T04:58:39.438Z,20.63
2017-08-26T05:01:05.874Z,19.13
2017-08-26T05:03:32.308Z,21.70
2017-08-26T05:05:59.413Z,23.27
2017-08-26T05:08:26.000Z,17.63
2017-08-26T05:10:52.384Z,18.80
2017-08-26T05:13:18.868Z,15.73
2017-08-26T05:15:45.405Z,21.30
2017-08-26T05:18:11.876Z,21.33
2017-08-26T05:20:38.274Z,20.50
2017-08-26T05:23:04.660Z,18.17
2017-08-26T05:25:31.138Z,21.47
2017-08-26T05:27:57.581Z,22.60
2017-08-26T05:30:24.832Z,21.50
2017-08-26T05:32:51.268Z,23.77
2017-08-26T05:35:17.759Z,27.93
2017-08-26T05:37:44.238Z,25.40
2017-08-26T05:40:10.674Z,17.23
2017-08-26T05:42:37.060Z,25.20
2017-08-26T05:45:03.544Z,20.00
2017-08-26T05:47:29.978Z,19.23
2017-08-26T05:49:56.415Z,21.37
2017-08-26T05:52:22.849Z,21.40
2017-08-26T05:54:49.387Z,34.07
2017-08-26T05:57:15.747Z,38.73
2017-08-26T05:59:42.120Z,27.90
2017-08-26T06:02:08.577Z,37.03
2017-08-26T06:04:35.099Z,35.07
2017-08-26T06:07:01.563Z,40.00
2017-08-26T06:09:28.003Z,45.07
2017-08-26T06:11:54.792Z,52.33
2017-08-26T06:14:21.691Z,38.40
2017-08-26T06:16:48.122Z,29.90
2017-08-26T06:19:14.583Z,22.67
2017-08-26T06:21:41.033Z,22.47
2017-08-26T06:24:08.141Z,18.77
2017-08-26T06:26:34.684Z,23.13
2017-08-26T06:29:01.064Z,18.00
2017-08-26T06:31:27.445Z,23.03
2017-08-26T06:33:54.291Z,33.00
2017-08-26T06:36:20.940Z,26.30
2017-08-26T06:38:47.675Z,18.70
2017-08-26T06:41:14.208Z,23.90
2017-08-26T06:43:41.160Z,21.20
2017-08-26T06:46:07.693Z,20.63
2017-08-26T06:48:34.127Z,23.43
2017-08-26T06:51:00.666Z,18.50
2017-08-26T06:53:27.696Z,80.63
2017-08-26T06:55:54.252Z,18.13
2017-08-26T06:58:20.687Z,20.83
2017-08-26T07:00:47.207Z,22.83
2017-08-26T07:03:13.761Z,20.17
2017-08-26T07:05:40.671Z,18.53
2017-08-26T07:08:07.130Z,21.23
2017-08-26T07:10:33.578Z,25.67
2017-08-26T07:13:00.219Z,23.30
2017-08-26T07:15:26.751Z,21.17
2017-08-26T07:17:53.354Z,22.60
2017-08-26T07:20:19.938Z,17.87
2017-08-26T07:22:46.367Z,25.87
2017-08-26T07:25:12.905Z,23.60
2017-08-26T07:27:40.280Z,26.80
2017-08-26T07:30:06.695Z,22.40
2017-08-26T07:32:33.236Z,26.13
2017-08-26T07:35:00.240Z,26.93
2017-08-26T07:37:26.671Z,21.93
2017-08-26T07:39:53.136Z,21.80
2017-08-26T07:42:19.954Z,22.30
2017-08-26T07:44:46.421Z,17.30
2017-08-26T07:47:12.867Z,19.23
2017-08-26T07:49:39.301Z,23.33
2017-08-26T07:52:05.946Z,22.50
2017-08-26T07:54:32.478Z,22.00
2017-08-26T07:56:58.915Z,24.50
2017-08-26T07:59:25.553Z,19.73
2017-08-26T08:01:52.090Z,24.77
2017-08-26T08:04:18.626Z,14.60
2017-08-26T08:06:45.471Z,16.63
2017-08-26T08:09:12.009Z,15.50
2017-08-26T08:11:38.545Z,17.23
2017-08-26T08:14:05.186Z,16.67
2017-08-26T08:16:31.724Z,16.90
2017-08-26T08:18:58.163Z,12.20
2017-08-26T08:21:24.899Z,13.80
2017-08-26T08:23:51.338Z,14.10
2017-08-26T08:26:17.871Z,15.30
2017-08-26T08:28:44.568Z,12.90
2017-08-26T08:31:11.001Z,13.20
2017-08-26T08:33:37.484Z,14.10
2017-08-26T08:36:04.326Z,12.20
2017-08-26T08:38:30.766Z,11.20
2017-08-26T08:40:57.610Z,15.73
2017-08-26T08:43:24.454Z,19.83
2017-08-26T08:45:50.993Z,12.30
2017-08-26T08:48:17.425Z,11.70
2017-08-26T08:50:44.174Z,15.50
2017-08-26T08:53:10.807Z,16.30
2017-08-26T08:55:37.344Z,13.80
2017-08-26T08:58:04.085Z,11.10
2017-08-26T09:00:30.520Z,11.00
2017-08-26T09:02:56.959Z,11.63
2017-08-26T09:05:23.800Z,12.10
2017-08-26T09:07:50.441Z,15.93
2017-08-26T09:10:16.980Z,11.27
2017-08-26T09:12:43.679Z,14.43
2017-08-26T09:15:10.152Z,16.90
2017-08-26T09:17:36.591Z,12.30
2017-08-26T09:20:03.536Z,9.30
2017-08-26T09:22:30.115Z,14.00
2017-08-26T09:24:56.608Z,14.60
2017-08-26T09:27:23.258Z,9.93
2017-08-26T09:29:49.787Z,12.77
2017-08-26T09:32:16.654Z,15.73
2017-08-26T09:34:43.414Z,11.43
2017-08-26T09:37:09.900Z,10.63
2017-08-26T09:39:36.341Z,14.60
2017-08-26T09:42:02.991Z,15.33
2017-08-26T09:44:29.628Z,12.10
2017-08-26T09:46:56.130Z,10.13
2017-08-26T09:49:23.212Z,16.00
2017-08-26T09:51:49.647Z,21.03
2017-08-26T09:54:16.081Z,11.80
2017-08-26T09:56:42.708Z,9.60
2017-08-26T09:59:09.157Z,8.83
2017-08-26T10:01:35.677Z,11.93
2017-08-26T10:04:02.538Z,10.23
2017-08-26T10:06:29.023Z,11.63
2017-08-26T10:08:55.518Z,17.80
2017-08-26T10:11:22.456Z,11.33
2017-08-26T10:13:48.950Z,17.43
2017-08-26T10:16:15.484Z,10.70
2017-08-26T10:18:42.071Z,13.70
2017-08-26T10:21:08.507Z,11.17
2017-08-26T10:23:34.940Z,12.10
2017-08-26T10:26:01.886Z,10.93
2017-08-26T10:28:28.328Z,13.50
2017-08-26T10:30:54.755Z,12.60
2017-08-26T10:33:21.499Z,15.93
2017-08-26T10:35:47.994Z,13.67
2017-08-26T10:38:14.468Z,13.47
2017-08-26T10:40:41.541Z,12.73
2017-08-26T10:43:08.056Z,11.70
2017-08-26T10:45:34.594Z,15.40
2017-08-26T10:48:01.319Z,9.90
2017-08-26T10:50:27.770Z,11.00
2017-08-26T10:52:54.205Z,11.93
2017-08-26T10:55:20.699Z,13.00
2017-08-26T10:57:47.484Z,10.43
2017-08-26T11:00:14.124Z,12.43
2017-08-26T11:02:40.561Z,10.47
2017-08-26T11:05:07.664Z,18.00
2017-08-26T11:07:34.145Z,11.57
2017-08-26T11:10:00.680Z,11.00
2017-08-26T11:12:27.427Z,17.53
2017-08-26T11:14:53.857Z,9.43
2017-08-26T11:17:20.295Z,12.50
2017-08-26T11:19:46.680Z,11.73
2017-08-26T11:22:13.366Z,8.40
2017-08-26T11:24:39.907Z,13.67
2017-08-26T11:27:06.411Z,10.47
2017-08-26T11:29:33.289Z,13.27
2017-08-26T11:31:59.726Z,9.03
2017-08-26T11:34:26.260Z,12.60
2017-08-26T11:36:52.951Z,8.03
2017-08-26T11:39:19.439Z,9.97
2017-08-26T11:41:45.875Z,6.70
2017-08-26T11:44:12.675Z,10.23
2017-08-26T11:46:39.152Z,7.27
2017-08-26T11:49:05.586Z,8.73
2017-08-26T11:51:32.589Z,6.33
2017-08-26T11:53:59.027Z,7.80
2017-08-26T11:56:25.819Z,5.80
2017-08-26T11:58:52.761Z,5.40
2017-08-26T12:01:19.299Z,5.43
2017-08-26T12:03:45.732Z,8.23
2017-08-26T12:06:12.471Z,7.03
2017-08-26T12:08:39.014Z,12.63
2017-08-26T12:11:05.552Z,11.60
2017-08-26T12:13:32.188Z,6.30
2017-08-26T12:15:58.726Z,4.67
2017-08-26T12:18:25.571Z,6.70
2017-08-26T12:20:52.210Z,4.70
2017-08-26T12:23:18.707Z,4.70
2017-08-26T12:25:45.284Z,4.40
2017-08-26T12:28:12.563Z,4.73
2017-08-26T12:30:39.181Z,4.37
2017-08-26T12:33:05.615Z,5.10
2017-08-26T12:35:32.273Z,4.83
2017-08-26T12:37:58.790Z,4.05
2017-08-26T12:40:25.326Z,4.45
2017-08-26T12:42:52.173Z,4.50
2017-08-26T12:45:18.607Z,3.50
2017-08-26T12:47:45.575Z,4.03
2017-08-26T12:50:12.578Z,3.97
2017-08-26T12:52:38.990Z,3.80
2017-08-26T12:55:05.468Z,3.70
2017-08-26T12:57:31.866Z,3.70
2017-08-26T12:59:58.326Z,6.32
2017-08-26T13:02:24.816Z,3.40
2017-08-26T13:04:51.421Z,3.20
2017-08-26T13:07:17.955Z,3.40
2017-08-26T13:09:44.391Z,5.32
2017-08-26T13:12:10.881Z,3.60
2017-08-26T13:14:37.382Z,3.60
2017-08-26T13:17:03.896Z,3.30
2017-08-26T13:19:30.335Z,4.18
2017-08-26T13:21:56.720Z,4.07
2017-08-26T13:24:23.186Z,3.55
2017-08-26T13:26:49.579Z,3.67
2017-08-26T13:29:15.972Z,3.40
2017-08-26T13:31:42.459Z,3.47
2017-08-26T13:34:09.661Z,3.10
2017-08-26T13:36:36.095Z,3.37
2017-08-26T13:39:02.531Z,3.85
2017-08-26T13:41:28.963Z,5.57
2017-08-26T13:43:55.400Z,5.43
2017-08-26T13:46:21.939Z,3.40
2017-08-26T13:48:48.392Z,3.90
2017-08-26T13:51:15.627Z,4.10
2017-08-26T13:53:42.060Z,3.75
2017-08-26T13:56:08.617Z,4.00
2017-08-26T13:58:34.988Z,4.00
2017-08-26T14:01:01.463Z,5.13
2017-08-26T14:03:27.902Z,4.37
2017-08-26T14:05:54.444Z,6.07
2017-08-26T14:08:20.878Z,6.67
2017-08-26T14:10:47.277Z,6.53
2017-08-26T14:13:13.726Z,7.33
2017-08-26T14:15:40.284Z,6.63
2017-08-26T14:18:06.720Z,6.73
2017-08-26T14:20:33.103Z,7.63
2017-08-26T14:22:59.588Z,11.73
2017-08-26T14:25:26.742Z,8.73
2017-08-26T14:27:53.174Z,7.10
2017-08-26T14:30:19.609Z,8.23
2017-08-26T14:32:46.146Z,9.10
2017-08-26T14:35:13.831Z,8.50
2017-08-26T14:37:40.348Z,8.77
2017-08-26T14:40:06.784Z,8.60
2017-08-26T14:42:33.217Z,8.33
2017-08-26T14:44:59.651Z,8.87
2017-08-26T14:47:26.213Z,9.07
2017-08-26T14:49:52.701Z,8.57
2017-08-26T14:52:19.164Z,8.20
2017-08-26T14:54:45.683Z,8.60
2017-08-26T14:57:12.082Z,9.60
2017-08-26T14:59:39.489Z,8.33
2017-08-26T15:02:05.924Z,10.40
2017-08-26T15:04:32.409Z,9.60
2017-08-26T15:06:58.879Z,8.97
2017-08-26T15:09:25.332Z,8.50
2017-08-26T15:11:51.684Z,11.60
2017-08-26T15:14:18.200Z,16.53
2017-08-26T15:16:45.463Z,8.37
2017-08-26T15:19:11.889Z,8.23
2017-08-26T15:21:38.449Z,7.87
2017-08-26T15:24:04.965Z,8.50
2017-08-26T15:26:31.502Z,8.83
2017-08-26T15:28:57.934Z,8.57
2017-08-26T15:31:24.371Z,10.03
2017-08-26T15:33:51.523Z,10.10
2017-08-26T15:36:17.994Z,13.73
2017-08-26T15:38:44.447Z,9.03
2017-08-26T15:41:10.996Z,10.23
2017-08-26T15:43:37.468Z,8.83
2017-08-26T15:46:04.008Z,10.13
2017-08-26T15:48:30.437Z,9.13
2017-08-26T15:50:57.593Z,13.73
2017-08-26T15:53:23.980Z,11.30
2017-08-26T15:55:50.462Z,10.70
2017-08-26T15:58:16.853Z,9.33
2017-08-26T16:00:43.293Z,12.90
2017-08-26T16:03:09.717Z,9.63
2017-08-26T16:05:36.140Z,8.03
2017-08-26T16:08:03.248Z,10.07
2017-08-26T16:10:29.686Z,14.23
2017-08-26T16:12:56.119Z,10.50
2017-08-26T16:15:22.657Z,21.70
2017-08-26T16:17:49.049Z,12.47
2017-08-26T16:20:15.629Z,8.40
2017-08-26T16:22:42.001Z,11.20
2017-08-26T16:25:08.479Z,10.10
2017-08-26T16:27:34.925Z,12.90
2017-08-26T16:30:01.370Z,9.30
2017-08-26T16:32:27.761Z,11.53
2017-08-26T16:34:54.230Z,12.47
2017-08-26T16:37:20.677Z,17.10
2017-08-26T16:39:47.059Z,9.70
2017-08-26T16:42:14.263Z,11.90
2017-08-26T16:44:40.798Z,12.03
2017-08-26T16:47:07.231Z,62.43
2017-08-26T16:49:33.620Z,26.43
2017-08-26T16:52:00.103Z,18.73
2017-08-26T16:54:26.476Z,13.00
2017-08-26T16:56:52.973Z,10.30
2017-08-26T16:59:19.972Z,11.70
2017-08-26T17:01:46.453Z,14.80
2017-08-26T17:04:12.893Z,19.73
2017-08-26T17:06:39.326Z,11.73
2017-08-26T17:09:05.762Z,12.20
2017-08-26T17:11:32.195Z,13.73
2017-08-26T17:13:58.650Z,14.37
2017-08-26T17:16:25.679Z,14.43
2017-08-26T17:18:52.116Z,16.03
2017-08-26T17:21:18.509Z,12.23
2017-08-26T17:23:44.937Z,17.10
2017-08-26T17:26:11.420Z,14.00
2017-08-26T17:28:37.855Z,16.93
2017-08-26T17:31:04.290Z,21.50
2017-08-26T17:33:31.533Z,12.93
2017-08-26T17:35:58.080Z,25.50
2017-08-26T17:38:24.517Z,17.03
2017-08-26T17:40:50.948Z,12.83
2017-08-26T17:43:17.386Z,17.20
2017-08-26T17:45:43.923Z,17.43
2017-08-26T17:48:10.462Z,18.43
2017-08-26T17:50:37.511Z,17.03
2017-08-26T17:53:03.896Z,21.20
2017-08-26T17:55:30.424Z,16.03
2017-08-26T17:57:56.916Z,15.63
2017-08-26T18:00:23.351Z,28.00
2017-08-26T18:02:49.726Z,21.17
2017-08-26T18:05:16.219Z,22.20
2017-08-26T18:07:43.372Z,18.40
2017-08-26T18:10:09.906Z,30.37
2017-08-26T18:12:36.345Z,29.30
2017-08-26T18:15:02.884Z,19.50
2017-08-26T18:17:29.317Z,22.97
2017-08-26T18:19:55.752Z,21.40
2017-08-26T18:22:22.207Z,19.50
2017-08-26T18:24:49.441Z,20.40
2017-08-26T18:27:15.878Z,19.47
2017-08-26T18:29:42.414Z,22.40
2017-08-26T18:32:08.848Z,19.77
2017-08-26T18:34:35.402Z,18.07
2017-08-26T18:37:01.922Z,20.70
2017-08-26T18:39:28.420Z,20.37
2017-08-26T18:41:55.613Z,19.53
2017-08-26T18:44:22.000Z,20.30
2017-08-26T18:46:48.483Z,25.80
2017-08-26T18:49:14.937Z,22.27
2017-08-26T18:51:41.454Z,18.03
2017-08-26T18:54:07.888Z,24.13
2017-08-26T18:56:34.321Z,19.40
2017-08-26T18:59:01.476Z,15.83
2017-08-26T19:01:27.853Z,16.97
2017-08-26T19:03:54.345Z,22.37
2017-08-26T19:06:20.839Z,16.53
2017-08-26T19:08:47.316Z,15.77
2017-08-26T19:11:13.759Z,18.03
2017-08-26T19:13:40.190Z,19.27
2017-08-26T19:16:07.438Z,22.00
2017-08-26T19:18:33.876Z,17.20
2017-08-26T19:21:00.312Z,16.37
2017-08-26T19:23:26.746Z,26.20
2017-08-26T19:25:53.282Z,22.70
2017-08-26T19:28:19.721Z,24.13
2017-08-26T19:30:46.149Z,17.40
2017-08-26T19:33:12.690Z,19.53
2017-08-26T19:35:39.124Z,19.67
2017-08-26T19:38:05.605Z,16.13
2017-08-26T19:40:32.097Z,16.13
2017-08-26T19:42:58.482Z,20.73
2017-08-26T19:45:24.963Z,16.47
2017-08-26T19:47:51.404Z,14.30
2017-08-26T19:50:18.733Z,18.43
2017-08-26T19:52:45.180Z,18.40
2017-08-26T19:55:11.628Z,31.37
2017-08-26T19:57:38.069Z,19.40
2017-08-26T20:00:04.500Z,29.83
2017-08-26T20:02:30.935Z,16.50
2017-08-26T20:04:57.472Z,17.93
2017-08-26T20:07:24.624Z,23.53
2017-08-26T20:09:51.057Z,16.77
2017-08-26T20:12:17.492Z,16.07
2017-08-26T20:14:44.064Z,17.63
2017-08-26T20:17:10.524Z,20.47
2017-08-26T20:19:37.003Z,22.40
2017-08-26T20:22:03.436Z,15.40
2017-08-26T20:24:30.690Z,20.23
2017-08-26T20:26:57.077Z,20.20
2017-08-26T20:29:23.517Z,16.10
2017-08-26T20:31:49.952Z,21.70
2017-08-26T20:34:16.407Z,17.67
2017-08-26T20:36:42.822Z,21.17
2017-08-26T20:39:09.296Z,19.33
2017-08-26T20:41:36.334Z,17.27
2017-08-26T20:44:02.734Z,19.07
2017-08-26T20:46:29.238Z,17.90
2017-08-26T20:48:55.756Z,18.23
2017-08-26T20:51:22.191Z,20.23
2017-08-26T20:53:48.626Z,15.90
2017-08-26T20:56:15.185Z,24.23
2017-08-26T20:58:42.210Z,17.93
2017-08-26T21:01:08.649Z,20.93
2017-08-26T21:03:35.044Z,14.13
2017-08-26T21:06:01.514Z,14.90
2017-08-26T21:08:27.951Z,15.97
2017-08-26T21:10:54.443Z,15.70
2017-08-26T21:13:20.888Z,18.80
2017-08-26T21:15:48.174Z,16.90
2017-08-26T21:18:14.613Z,18.83
2017-08-26T21:20:41.000Z,23.00
2017-08-26T21:23:07.461Z,17.70
2017-08-26T21:25:34.123Z,14.20
2017-08-26T21:28:00.560Z,17.67
2017-08-26T21:30:26.993Z,18.57
2017-08-26T21:32:54.248Z,17.33
2017-08-26T21:35:20.775Z,19.70
2017-08-26T21:37:47.173Z,17.13
2017-08-26T21:40:13.653Z,16.50
2017-08-26T21:42:40.089Z,21.10
2017-08-26T21:45:06.624Z,17.20
2017-08-26T21:47:33.065Z,21.43
2017-08-26T21:50:00.174Z,19.70
2017-08-26T21:52:26.647Z,18.03
2017-08-26T21:54:53.185Z,14.20
2017-08-26T21:57:19.619Z,21.03
2017-08-26T21:59:46.053Z,18.40
2017-08-26T22:02:12.442Z,20.17
2017-08-26T22:04:38.926Z,22.37
2017-08-26T22:07:06.080Z,17.53
2017-08-26T22:09:32.512Z,24.13
2017-08-26T22:11:58.945Z,17.90
2017-08-26T22:14:25.331Z,17.97
2017-08-26T22:16:51.679Z,19.50
2017-08-26T22:19:18.144Z,19.40
2017-08-26T22:21:44.582Z,21.30
2017-08-26T22:24:11.755Z,20.93
2017-08-26T22:26:38.169Z,16.17
2017-08-26T22:29:04.563Z,19.10
2017-08-26T22:31:31.012Z,23.33
2017-08-26T22:33:57.473Z,17.13
2017-08-26T22:36:24.052Z,16.97
2017-08-26T22:38:50.656Z,18.67
2017-08-26T22:41:17.904Z,19.40
2017-08-26T22:43:44.342Z,21.77
2017-08-26T22:46:10.877Z,25.27
2017-08-26T22:48:37.311Z,25.67
2017-08-26T22:51:03.747Z,24.10
2017-08-26T22:53:30.184Z,18.73
2017-08-26T22:55:56.672Z,17.33
2017-08-26T22:58:23.667Z,21.60
2017-08-26T23:00:50.104Z,19.77
2017-08-26T23:03:16.512Z,18.23
2017-08-26T23:05:43.028Z,18.33
2017-08-26T23:08:09.510Z,17.97
2017-08-26T23:10:35.942Z,18.30
2017-08-26T23:13:02.480Z,20.80
2017-08-26T23:15:29.525Z,18.70
2017-08-26T23:17:55.964Z,14.80
2017-08-26T23:20:22.399Z,15.00
2017-08-26T23:22:48.784Z,18.93
2017-08-26T23:25:15.293Z,17.00
2017-08-26T23:27:41.788Z,21.10
2017-08-26T23:30:08.242Z,21.13
2017-08-26T23:32:35.393Z,22.63
2017-08-26T23:35:01.932Z,18.73
2017-08-26T23:37:28.467Z,17.43
2017-08-26T23:39:54.877Z,17.70
2017-08-26T23:42:21.297Z,21.77
2017-08-26T23:44:47.772Z,28.63
2017-08-26T23:47:14.208Z,17.70
2017-08-26T23:49:41.358Z,24.17
2017-08-26T23:52:07.790Z,19.70
2017-08-26T23:54:34.277Z,19.00
2017-08-26T23:57:00.766Z,19.53
2017-08-26T23:59:27.172Z,17.50
